createdAt,value
2022-11-13T00:01:11.404Z,102342.94
2022-11-13T00:03:39.390Z,102337.78
2022-11-13T00:06:07.875Z,102308.72
2022-11-13T00:08:35.827Z,102338.78
2022-11-13T00:11:05.246Z,102338.88
2022-11-13T00:13:33.509Z,102335.22
2022-11-13T00:16:03.467Z,102330.81
2022-11-13T00:18:35.413Z,102324.56
2022-11-13T00:21:06.918Z,102325.50
2022-11-13T00:23:36.188Z,102321.88
2022-11-13T00:26:08.719Z,102328.19
2022-11-13T00:28:36.825Z,102322.81
2022-11-13T00:31:06.092Z,102323.03
2022-11-13T00:34:05.345Z,102318.41
2022-11-13T00:36:26.524Z,102302.50
2022-11-13T00:38:55.392Z,102327.25
2022-11-13T00:41:23.934Z,102338.94
2022-11-13T00:43:52.421Z,102334.34
2022-11-13T00:46:21.167Z,102339.50
2022-11-13T00:48:50.493Z,102336.09
2022-11-13T00:51:19.732Z,102332.41
2022-11-13T00:53:47.824Z,102333.19
2022-11-13T00:56:15.826Z,102325.13
2022-11-13T00:58:43.842Z,102332.19
2022-11-13T01:01:14.306Z,102333.91
2022-11-13T01:03:42.651Z,102332.19
2022-11-13T01:06:14.405Z,102327.81
2022-11-13T01:08:42.932Z,102328.75
2022-11-13T01:11:12.525Z,102315.19
2022-11-13T01:13:41.482Z,102339.50
2022-11-13T01:16:12.302Z,102333.41
2022-11-13T01:18:41.333Z,102329.84
2022-11-13T01:21:11.429Z,102341.47
2022-11-13T01:23:41.086Z,102331.66
2022-11-13T01:26:11.624Z,102336.09
2022-11-13T01:28:40.337Z,102329.84
2022-11-13T01:31:09.884Z,102325.34
2022-11-13T01:33:37.977Z,102323.59
2022-11-13T01:36:09.562Z,102325.34
2022-11-13T01:38:37.968Z,102328.97
2022-11-13T01:41:08.173Z,102324.56
2022-11-13T01:43:38.541Z,102325.34
2022-11-13T01:46:15.260Z,102323.38
2022-11-13T01:48:46.791Z,102319.72
2022-11-13T01:51:20.124Z,102318.00
2022-11-13T01:53:49.235Z,102309.19
2022-11-13T01:56:19.623Z,102308.97
2022-11-13T01:58:54.354Z,102310.69
2022-11-13T02:01:22.353Z,102301.88
2022-11-13T02:03:50.388Z,102298.22
2022-11-13T02:06:18.779Z,102299.06
2022-11-13T02:08:47.449Z,102292.84
2022-11-13T02:11:15.428Z,102294.56
2022-11-13T02:13:44.974Z,102287.34
2022-11-13T02:16:14.862Z,102285.50
2022-11-13T02:18:43.928Z,102288.22
2022-11-13T02:21:23.545Z,102280.34
2022-11-13T02:23:59.785Z,102284.66
2022-11-13T02:26:30.947Z,102282.09
2022-11-13T02:28:58.896Z,102287.47
2022-11-13T02:31:26.824Z,102289.19
2022-11-13T02:33:54.769Z,102287.47
2022-11-13T02:36:26.576Z,102279.94
2022-11-13T02:38:57.730Z,102290.91
2022-11-13T02:41:25.718Z,102296.28
2022-11-13T02:43:55.035Z,102289.19
2022-11-13T02:46:22.979Z,102287.47
2022-11-13T02:48:50.935Z,102287.47
2022-11-13T02:51:18.900Z,102279.41
2022-11-13T02:53:46.927Z,102282.09
2022-11-13T02:56:14.881Z,102276.72
2022-11-13T02:58:42.950Z,102270.38
2022-11-13T03:01:12.377Z,102273.06
2022-11-13T03:03:57.174Z,102282.09
2022-11-13T03:06:25.934Z,102286.59
2022-11-13T03:08:54.070Z,102253.91
2022-11-13T03:11:22.070Z,102291.13
2022-11-13T03:13:49.979Z,102296.50
2022-11-13T03:16:19.626Z,102291.13
2022-11-13T03:18:47.533Z,102287.69
2022-11-13T03:21:16.964Z,102277.34
2022-11-13T03:23:46.163Z,102285.72
2022-11-13T03:26:16.343Z,102277.13
2022-11-13T03:28:44.857Z,102292.84
2022-11-13T03:31:13.040Z,102293.69
2022-11-13T03:33:42.436Z,102288.31
2022-11-13T03:36:10.516Z,102291.00
2022-11-13T03:38:38.486Z,102291.88
2022-11-13T03:41:06.878Z,102274.16
2022-11-13T03:43:34.840Z,102280.13
2022-11-13T03:46:02.855Z,102277.44
2022-11-13T03:48:31.079Z,102273.06
2022-11-13T03:51:01.042Z,102279.28
2022-11-13T03:53:29.054Z,102276.72
2022-11-13T03:55:56.983Z,102268.66
2022-11-13T03:58:25.054Z,102276.72
2022-11-13T04:00:55.626Z,102274.03
2022-11-13T04:03:23.792Z,102280.34
2022-11-13T04:05:52.096Z,102274.97
2022-11-13T04:08:21.703Z,102285.72
2022-11-13T04:10:49.660Z,102276.94
2022-11-13T04:13:17.687Z,102280.34
2022-11-13T04:15:45.692Z,102273.28
2022-11-13T04:18:13.696Z,102281.22
2022-11-13T04:20:41.613Z,102275.84
2022-11-13T04:23:12.690Z,102287.47
2022-11-13T04:25:42.092Z,102282.09
2022-11-13T04:28:10.845Z,102276.94
2022-11-13T04:30:39.193Z,102246.19
2022-11-13T04:33:07.689Z,102273.28
2022-11-13T04:35:35.710Z,102273.28
2022-11-13T04:38:03.837Z,102280.34
2022-11-13T04:40:31.877Z,102288.41
2022-11-13T04:43:00.174Z,102278.66
2022-11-13T04:45:28.633Z,102284.03
2022-11-13T04:47:56.616Z,102284.03
2022-11-13T04:50:24.817Z,102296.50
2022-11-13T04:52:52.819Z,102298.34
2022-11-13T04:55:20.850Z,102290.28
2022-11-13T04:57:51.628Z,102291.00
2022-11-13T05:00:21.329Z,102293.81
2022-11-13T05:02:49.300Z,102296.50
2022-11-13T05:05:17.591Z,102287.69
2022-11-13T05:07:45.545Z,102287.69
2022-11-13T05:10:14.031Z,102289.41
2022-11-13T05:12:41.985Z,102287.47
2022-11-13T05:15:10.578Z,102296.50
2022-11-13T05:17:39.968Z,102291.13
2022-11-13T05:20:09.125Z,102294.56
2022-11-13T05:22:37.076Z,102289.41
2022-11-13T05:25:05.472Z,102288.41
2022-11-13T05:27:33.415Z,102289.41
2022-11-13T05:30:01.361Z,102274.25
2022-11-13T05:32:29.349Z,102278.88
2022-11-13T05:34:58.671Z,102279.94
2022-11-13T05:37:26.600Z,102276.94
2022-11-13T05:39:54.505Z,102284.03
2022-11-13T05:42:22.448Z,102287.69
2022-11-13T05:44:50.377Z,102289.41
2022-11-13T05:47:18.334Z,102273.50
2022-11-13T05:49:46.621Z,102279.53
2022-11-13T05:52:15.976Z,102283.16
2022-11-13T05:54:43.902Z,102276.94
2022-11-13T05:57:11.875Z,102265.31
2022-11-13T05:59:39.785Z,102271.56
2022-11-13T06:02:07.802Z,102280.34
2022-11-13T06:04:36.199Z,102275.75
2022-11-13T06:07:04.171Z,102269.59
2022-11-13T06:09:33.599Z,102264.44
2022-11-13T06:12:01.588Z,102267.31
2022-11-13T06:14:29.529Z,102278.88
2022-11-13T06:16:57.441Z,102280.56
2022-11-13T06:19:25.621Z,102283.25
2022-11-13T06:21:53.577Z,102286.81
2022-11-13T06:24:21.614Z,102284.03
2022-11-13T06:26:50.951Z,102268.97
2022-11-13T06:29:19.075Z,102282.31
2022-11-13T06:31:47.041Z,102288.53
2022-11-13T06:34:14.975Z,102287.69
2022-11-13T06:36:42.884Z,102291.13
2022-11-13T06:39:11.678Z,102267.31
2022-11-13T06:41:40.166Z,102277.88
2022-11-13T06:44:09.636Z,102274.25
2022-11-13T06:46:37.614Z,102282.31
2022-11-13T06:49:05.582Z,102282.31
2022-11-13T06:51:33.998Z,102294.88
2022-11-13T06:54:01.967Z,102288.72
2022-11-13T06:56:29.915Z,102294.03
2022-11-13T06:58:58.052Z,102301.13
2022-11-13T07:01:27.906Z,102302.09
2022-11-13T07:03:55.909Z,102305.75
2022-11-13T07:06:25.459Z,102312.84
2022-11-13T07:08:54.032Z,102312.84
2022-11-13T07:11:24.040Z,102307.47
2022-11-13T07:13:52.005Z,102300.38
2022-11-13T07:16:20.143Z,102297.69
2022-11-13T07:18:52.954Z,102300.38
2022-11-13T07:21:21.815Z,102295.00
2022-11-13T07:23:50.786Z,102285.19
2022-11-13T07:26:19.539Z,102295.00
2022-11-13T07:28:48.100Z,102301.25
2022-11-13T07:31:17.349Z,102300.38
2022-11-13T07:33:45.709Z,102298.63
2022-11-13T07:36:15.010Z,102301.31
2022-11-13T07:38:43.171Z,102300.38
2022-11-13T07:41:11.157Z,102299.47
2022-11-13T07:43:39.138Z,102301.25
2022-11-13T07:46:07.632Z,102295.41
2022-11-13T07:48:35.606Z,102303.13
2022-11-13T07:51:04.761Z,102300.38
2022-11-13T07:53:34.075Z,102307.47
2022-11-13T07:56:03.064Z,102309.19
2022-11-13T07:58:31.544Z,102300.38
2022-11-13T08:01:04.278Z,102300.28
2022-11-13T08:03:32.568Z,102308.44
2022-11-13T08:06:05.235Z,102301.25
2022-11-13T08:08:35.358Z,102296.72
2022-11-13T08:11:06.388Z,102291.50
2022-11-13T08:13:34.425Z,102297.69
2022-11-13T08:16:02.719Z,102289.63
2022-11-13T08:18:31.898Z,102298.56
2022-11-13T08:21:02.817Z,102299.47
2022-11-13T08:23:30.817Z,102291.50
2022-11-13T08:26:04.616Z,102298.63
2022-11-13T08:28:32.631Z,102304.00
2022-11-13T08:31:00.758Z,102309.38
2022-11-13T08:33:28.963Z,102301.31
2022-11-13T08:35:58.260Z,102305.75
2022-11-13T08:38:26.818Z,102321.88
2022-11-13T08:41:01.271Z,102314.75
2022-11-13T08:43:32.932Z,102314.75
2022-11-13T08:46:00.885Z,102313.03
2022-11-13T08:48:29.120Z,102319.19
2022-11-13T08:50:58.183Z,102314.75
2022-11-13T08:53:26.620Z,102321.88
2022-11-13T08:55:54.557Z,102327.25
2022-11-13T08:58:23.872Z,102328.97
2022-11-13T09:00:51.831Z,102321.78
2022-11-13T09:03:19.856Z,102324.56
2022-11-13T09:05:47.820Z,102316.50
2022-11-13T09:08:15.779Z,102322.75
2022-11-13T09:10:43.790Z,102331.72
2022-11-13T09:13:12.376Z,102327.25
2022-11-13T09:15:42.268Z,102330.88
2022-11-13T09:18:11.367Z,102330.88
2022-11-13T09:20:39.341Z,102325.72
2022-11-13T09:23:09.387Z,102343.38
2022-11-13T09:25:38.465Z,102343.38
2022-11-13T09:28:07.871Z,102344.34
2022-11-13T09:30:35.925Z,102341.63
2022-11-13T09:33:05.962Z,102339.91
2022-11-13T09:35:37.592Z,102332.63
2022-11-13T09:38:10.996Z,102338.88
2022-11-13T09:40:43.330Z,102338.00
2022-11-13T09:43:26.597Z,102341.63
2022-11-13T09:46:01.888Z,102335.50
2022-11-13T09:48:35.910Z,102341.63
2022-11-13T09:51:07.672Z,102347.03
2022-11-13T09:53:38.791Z,102345.28
2022-11-13T09:56:17.053Z,102340.13
2022-11-13T09:58:50.769Z,102342.81
2022-11-13T10:01:27.756Z,102350.66
2022-11-13T10:04:04.143Z,102344.44
2022-11-13T10:06:44.912Z,102349.69
2022-11-13T10:09:22.008Z,102340.13
2022-11-13T10:11:56.620Z,102345.28
2022-11-13T10:14:30.864Z,102349.69
2022-11-13T10:17:02.302Z,102346.25
2022-11-13T10:19:48.260Z,102343.56
2022-11-13T10:22:36.573Z,102340.97
2022-11-13T10:25:12.760Z,102341.84
2022-11-13T10:27:41.129Z,102340.97
2022-11-13T10:30:16.122Z,102338.19
2022-11-13T10:32:45.475Z,102343.56
2022-11-13T10:35:33.174Z,102347.22
2022-11-13T10:38:08.566Z,102344.53
2022-11-13T10:40:38.789Z,102314.31
2022-11-13T10:43:12.856Z,102339.06
2022-11-13T10:45:41.868Z,102341.63
2022-11-13T10:48:21.157Z,102340.78
2022-11-13T10:51:00.238Z,102345.28
2022-11-13T10:53:37.414Z,102339.91
2022-11-13T10:56:14.515Z,102339.91
2022-11-13T10:58:42.500Z,102336.25
2022-11-13T11:01:17.572Z,102339.91
2022-11-13T11:03:51.058Z,102337.22
2022-11-13T11:06:20.388Z,102334.53
2022-11-13T11:08:48.379Z,102334.53
2022-11-13T11:11:37.646Z,102328.31
2022-11-13T11:14:14.498Z,102331.84
2022-11-13T11:16:44.032Z,102330.03
2022-11-13T11:19:15.350Z,102335.41
2022-11-13T11:21:48.925Z,102324.00
2022-11-13T11:24:22.308Z,102332.81
2022-11-13T11:26:54.575Z,102332.81
2022-11-13T11:29:28.557Z,102327.53
2022-11-13T11:32:00.737Z,102334.53
2022-11-13T11:34:35.464Z,102334.53
2022-11-13T11:37:14.544Z,102325.72
2022-11-13T11:39:48.560Z,102257.16
2022-11-13T11:42:27.612Z,102320.13
2022-11-13T11:45:12.319Z,102334.53
2022-11-13T11:47:40.370Z,102332.81
2022-11-13T11:50:14.824Z,102329.16
2022-11-13T11:53:01.161Z,102323.78
2022-11-13T11:55:44.709Z,102328.31
2022-11-13T11:58:22.357Z,102322.28
2022-11-13T12:00:52.506Z,102327.44
2022-11-13T12:03:42.074Z,102316.91
2022-11-13T12:06:20.642Z,102323.03
2022-11-13T12:08:58.203Z,102329.38
2022-11-13T12:11:30.578Z,102320.34
2022-11-13T12:14:08.607Z,102322.06
2022-11-13T12:16:44.295Z,102323.03
2022-11-13T12:19:23.327Z,102315.72
2022-11-13T12:22:06.178Z,102304.22
2022-11-13T12:24:58.715Z,102307.88
2022-11-13T12:27:35.353Z,102299.06
2022-11-13T12:30:13.020Z,102295.19
2022-11-13T12:32:55.207Z,102304.84
2022-11-13T12:35:26.020Z,102291.34
2022-11-13T12:37:59.556Z,102295.00
2022-11-13T12:40:39.844Z,102307.47
2022-11-13T12:43:36.618Z,102301.13
2022-11-13T12:46:09.382Z,102301.13
2022-11-13T12:48:40.728Z,102297.56
2022-11-13T12:51:11.009Z,102291.34
2022-11-13T12:53:47.450Z,102287.69
2022-11-13T12:56:30.654Z,102285.97
2022-11-13T12:59:29.123Z,102287.69
2022-11-13T13:02:00.991Z,102288.53
2022-11-13T13:04:47.652Z,102279.75
2022-11-13T13:07:33.055Z,102292.97
2022-11-13T13:10:16.221Z,102291.13
2022-11-13T13:12:56.280Z,102277.78
2022-11-13T13:15:31.932Z,102288.09
2022-11-13T13:18:09.970Z,102274.75
2022-11-13T13:20:39.767Z,102283.81
2022-11-13T13:23:12.593Z,102261.00
2022-11-13T13:25:41.902Z,102273.28
2022-11-13T13:28:24.185Z,102273.28
2022-11-13T13:31:02.561Z,102271.34
2022-11-13T13:33:42.651Z,102269.59
2022-11-13T13:36:22.271Z,102259.06
2022-11-13T13:38:56.908Z,102256.28
2022-11-13T13:41:35.905Z,102262.53
2022-11-13T13:44:36.390Z,102262.53
2022-11-13T13:47:11.451Z,102246.63
2022-11-13T13:49:39.452Z,102259.06
2022-11-13T13:52:07.626Z,102252.75
2022-11-13T13:54:37.508Z,102253.69
2022-11-13T13:57:05.804Z,102253.69
2022-11-13T13:59:38.324Z,102260.81
2022-11-13T14:02:17.017Z,102258.13
2022-11-13T14:04:47.161Z,102258.03
2022-11-13T14:07:24.387Z,102258.03
2022-11-13T14:10:06.864Z,102257.16
2022-11-13T14:12:34.860Z,102249.19
2022-11-13T14:15:06.966Z,102255.44
2022-11-13T14:17:35.631Z,102257.16
2022-11-13T14:20:03.601Z,102244.88
2022-11-13T14:22:31.610Z,102250.91
2022-11-13T14:25:02.046Z,102244.69
2022-11-13T14:27:31.211Z,102246.50
2022-11-13T14:30:02.917Z,102250.91
2022-11-13T14:32:44.239Z,102250.06
2022-11-13T14:35:20.953Z,102251.78
2022-11-13T14:37:49.636Z,102247.38
2022-11-13T14:40:24.659Z,102253.69
2022-11-13T14:42:57.651Z,102257.16
2022-11-13T14:45:27.566Z,102251.00
2022-11-13T14:48:02.489Z,102251.78
2022-11-13T14:50:32.283Z,102246.38
2022-11-13T14:53:02.654Z,102251.78
2022-11-13T14:55:32.913Z,102251.78
2022-11-13T14:58:00.902Z,102249.09
2022-11-13T15:00:32.661Z,102256.28
2022-11-13T15:03:03.411Z,102253.47
2022-11-13T15:05:31.499Z,102242.72
2022-11-13T15:08:00.318Z,102245.53
2022-11-13T15:10:30.448Z,102248.09
2022-11-13T15:12:58.470Z,102236.63
2022-11-13T15:15:30.452Z,102231.97
2022-11-13T15:17:58.477Z,102237.34
2022-11-13T15:20:29.726Z,102235.63
2022-11-13T15:22:59.811Z,102226.81
2022-11-13T15:25:27.801Z,102230.25
2022-11-13T15:27:55.744Z,102229.41
2022-11-13T15:30:23.707Z,102229.50
2022-11-13T15:32:54.255Z,102233.06
2022-11-13T15:35:22.767Z,102225.97
2022-11-13T15:37:52.600Z,102230.50
2022-11-13T15:40:20.559Z,102227.69
2022-11-13T15:42:48.615Z,102226.81
2022-11-13T15:45:18.148Z,102223.19
2022-11-13T15:47:46.111Z,102227.81
2022-11-13T15:50:15.658Z,102228.56
2022-11-13T15:52:47.569Z,102233.94
2022-11-13T15:55:25.955Z,102228.56
2022-11-13T15:57:54.716Z,102237.56
2022-11-13T16:00:26.303Z,102227.69
2022-11-13T16:02:55.786Z,102237.56
2022-11-13T16:05:25.512Z,102237.75
2022-11-13T16:07:54.201Z,102238.56
2022-11-13T16:10:25.380Z,102234.13
2022-11-13T16:12:53.949Z,102238.56
2022-11-13T16:15:22.122Z,102229.59
2022-11-13T16:17:52.012Z,102232.38
2022-11-13T16:20:20.576Z,102228.75
2022-11-13T16:22:48.836Z,102232.19
2022-11-13T16:25:19.724Z,102230.50
2022-11-13T16:27:49.948Z,102237.56
2022-11-13T16:30:20.443Z,102239.31
2022-11-13T16:32:48.877Z,102230.50
2022-11-13T16:35:18.708Z,102236.72
2022-11-13T16:37:46.860Z,102227.81
2022-11-13T16:40:24.069Z,102238.44
2022-11-13T16:42:55.937Z,102240.16
2022-11-13T16:45:24.175Z,102233.94
2022-11-13T16:47:52.098Z,102238.44
2022-11-13T16:50:23.718Z,102242.00
2022-11-13T16:52:52.333Z,102242.72
2022-11-13T16:55:20.597Z,102240.16
2022-11-13T16:57:48.514Z,102239.31
2022-11-13T17:00:20.609Z,102233.94
2022-11-13T17:02:52.613Z,102232.09
2022-11-13T17:05:21.802Z,102223.19
2022-11-13T17:07:51.008Z,102189.75
2022-11-13T17:10:36.558Z,102225.00
2022-11-13T17:13:04.750Z,102221.63
2022-11-13T17:15:34.081Z,102233.94
2022-11-13T17:18:02.147Z,102231.34
2022-11-13T17:20:30.080Z,102235.88
2022-11-13T17:22:58.065Z,102232.19
2022-11-13T17:25:28.101Z,102233.94
2022-11-13T17:27:56.081Z,102226.81
2022-11-13T17:30:24.132Z,102226.81
2022-11-13T17:32:53.496Z,102223.19
2022-11-13T17:35:21.419Z,102221.44
2022-11-13T17:37:49.366Z,102226.81
2022-11-13T17:40:17.822Z,102223.19
2022-11-13T17:42:48.094Z,102216.94
2022-11-13T17:45:16.734Z,102223.19
2022-11-13T17:47:44.741Z,102222.31
2022-11-13T17:50:15.131Z,102210.69
2022-11-13T17:52:43.210Z,102211.09
2022-11-13T17:55:13.197Z,102212.44
2022-11-13T17:57:41.201Z,102217.81
2022-11-13T18:00:10.657Z,102214.13
2022-11-13T18:02:39.620Z,102207.88
2022-11-13T18:05:10.018Z,102206.06
2022-11-13T18:07:40.225Z,102210.47
2022-11-13T18:10:10.955Z,102215.84
2022-11-13T18:12:40.540Z,102212.22
2022-11-13T18:15:09.542Z,102212.22
2022-11-13T18:17:37.509Z,102214.13
2022-11-13T18:20:06.163Z,102210.47
2022-11-13T18:22:34.116Z,102203.38
2022-11-13T18:25:03.451Z,102205.09
2022-11-13T18:27:32.070Z,102203.38
2022-11-13T18:30:00.388Z,102203.38
2022-11-13T18:32:28.754Z,102208.75
2022-11-13T18:34:56.682Z,102204.25
2022-11-13T18:37:24.718Z,102207.88
2022-11-13T18:39:53.105Z,102189.19
2022-11-13T18:42:22.610Z,102199.94
2022-11-13T18:44:50.901Z,102198.00
2022-11-13T18:47:18.945Z,102200.69
2022-11-13T18:49:47.133Z,102196.31
2022-11-13T18:52:15.259Z,102192.63
2022-11-13T18:54:43.159Z,102187.25
2022-11-13T18:57:11.163Z,102185.56
2022-11-13T18:59:40.444Z,102184.56
2022-11-13T19:02:10.272Z,102174.78
2022-11-13T19:04:38.237Z,102172.84
2022-11-13T19:07:06.204Z,102164.03
2022-11-13T19:09:34.164Z,102156.69
2022-11-13T19:12:02.099Z,102132.22
2022-11-13T19:14:30.026Z,102165.75
2022-11-13T19:16:59.363Z,102155.88
2022-11-13T19:19:27.308Z,102161.34
2022-11-13T19:21:55.216Z,102159.50
2022-11-13T19:24:23.348Z,102113.53
2022-11-13T19:26:51.363Z,102150.59
2022-11-13T19:29:20.285Z,102149.63
2022-11-13T19:31:48.846Z,102150.50
2022-11-13T19:34:18.496Z,102147.91
2022-11-13T19:36:48.025Z,102149.63
2022-11-13T19:39:16.871Z,102149.63
2022-11-13T19:41:44.893Z,102149.63
2022-11-13T19:44:12.986Z,102153.28
2022-11-13T19:46:40.889Z,102153.28
2022-11-13T19:49:09.018Z,102156.81
2022-11-13T19:51:38.338Z,102155.00
2022-11-13T19:54:06.538Z,102153.28
2022-11-13T19:56:34.523Z,102154.00
2022-11-13T19:59:02.454Z,102152.19
2022-11-13T20:01:32.015Z,102111.38
2022-11-13T20:04:01.842Z,102144.25
2022-11-13T20:06:31.506Z,102138.88
2022-11-13T20:09:01.712Z,102138.88
2022-11-13T20:11:30.423Z,102142.53
2022-11-13T20:13:58.555Z,102133.50
2022-11-13T20:16:26.555Z,102135.19
2022-11-13T20:18:58.014Z,102138.88
2022-11-13T20:21:27.140Z,102133.50
2022-11-13T20:23:57.749Z,102125.44
2022-11-13T20:26:27.835Z,102127.13
2022-11-13T20:28:55.789Z,102128.13
2022-11-13T20:31:25.730Z,102118.22
2022-11-13T20:33:56.176Z,102114.34
2022-11-13T20:36:25.187Z,102135.19
2022-11-13T20:38:55.299Z,102137.16
2022-11-13T20:41:24.098Z,102133.50
2022-11-13T20:43:55.837Z,102126.41
2022-11-13T20:46:23.918Z,102121.03
2022-11-13T20:48:52.196Z,102117.38
2022-11-13T20:51:21.713Z,102121.03
2022-11-13T20:53:50.488Z,102126.41
2022-11-13T20:56:19.704Z,102121.03
2022-11-13T20:58:48.013Z,102125.44
2022-11-13T21:01:19.877Z,102120.16
2022-11-13T21:03:48.665Z,102127.44
2022-11-13T21:06:18.691Z,102119.31
2022-11-13T21:08:47.074Z,102124.66
2022-11-13T21:11:19.019Z,102130.06
2022-11-13T21:13:49.073Z,102133.59
2022-11-13T21:16:18.568Z,102126.59
2022-11-13T21:18:47.363Z,102097.41
2022-11-13T21:21:18.783Z,102130.06
2022-11-13T21:23:47.256Z,102121.22
2022-11-13T21:26:15.943Z,102110.47
2022-11-13T21:28:44.286Z,102105.09
2022-11-13T21:31:18.923Z,102108.63
2022-11-13T21:33:51.183Z,102110.47
2022-11-13T21:36:20.878Z,102107.03
2022-11-13T21:38:51.149Z,102101.47
2022-11-13T21:41:25.818Z,102100.56
2022-11-13T21:43:58.314Z,102099.72
2022-11-13T21:46:28.334Z,102092.63
2022-11-13T21:48:59.802Z,102089.81
2022-11-13T21:51:28.248Z,102086.22
2022-11-13T21:53:56.857Z,102076.38
2022-11-13T21:56:25.590Z,102087.03
2022-11-13T21:58:54.175Z,102080.16
2022-11-13T22:01:23.838Z,102087.03
2022-11-13T22:03:52.076Z,102088.78
2022-11-13T22:06:23.926Z,102088.78
2022-11-13T22:08:56.928Z,102093.28
2022-11-13T22:11:25.321Z,102087.03
2022-11-13T22:13:53.507Z,102081.66
2022-11-13T22:16:22.352Z,102072.84
2022-11-13T22:18:54.876Z,102069.22
2022-11-13T22:21:25.345Z,102033.50
2022-11-13T22:23:53.808Z,102079.97
2022-11-13T22:26:23.488Z,102079.97
2022-11-13T22:28:52.910Z,102081.75
2022-11-13T22:31:22.743Z,102080.38
2022-11-13T22:33:54.597Z,102083.59
2022-11-13T22:36:26.929Z,102083.59
2022-11-13T22:38:55.069Z,102086.28
2022-11-13T22:41:24.873Z,102072.84
2022-11-13T22:43:55.305Z,102070.16
2022-11-13T22:46:25.091Z,102077.28
2022-11-13T22:48:54.723Z,102077.34
2022-11-13T22:51:26.424Z,102069.22
2022-11-13T22:53:56.550Z,102067.47
2022-11-13T22:56:26.814Z,102075.44
2022-11-13T22:58:55.611Z,102071.91
2022-11-13T23:01:25.166Z,102070.91
2022-11-13T23:03:54.892Z,102070.91
2022-11-13T23:06:26.132Z,102070.09
2022-11-13T23:08:54.594Z,102041.97
2022-11-13T23:11:24.573Z,102067.47
2022-11-13T23:13:54.250Z,102065.53
2022-11-13T23:16:23.705Z,102062.84
2022-11-13T23:18:52.536Z,102070.91
2022-11-13T23:21:20.493Z,102072.84
2022-11-13T23:23:49.884Z,102074.59
2022-11-13T23:26:18.661Z,102067.47
2022-11-13T23:28:46.784Z,102063.84
2022-11-13T23:31:15.073Z,102056.19
2022-11-13T23:33:43.365Z,102044.91
2022-11-13T23:36:12.910Z,102056.53
2022-11-13T23:38:41.014Z,102021.31
2022-11-13T23:41:11.304Z,102061.91
2022-11-13T23:44:08.087Z,102055.66
2022-11-13T23:46:27.169Z,102060.16
2022-11-13T23:48:55.445Z,102051.16
2022-11-13T23:51:23.418Z,102044.03
2022-11-13T23:53:51.367Z,102049.41
2022-11-13T23:56:20.684Z,102043.28
2022-11-13T23:58:48.579Z,102042.34
